logo
Search for airport 
image banner adimage banner adimage banner ad
image banner ad

OLKA - Kleyate/Rene Mouawad Airport

Located in Tripoli, Lebanon

ICAO - OLKA, IATA - KYE

Data provided by Airmate  

General information

Coordinates: N34°35'10" E36°0'10"
Elevation is 22 feet MSL.
Magnetic variation is 5° East
View others Airports in North Governorate

Operational data

Special qualification required
Current time UTC:
Current local time:
Weather at : - ( 0 km )
METAR: CZSJ 240647Z AUTO 30003KT 5/8SM BR FEW001 M02/M02 A3004 RMK SLP195
View NOTAMs / SUP AIP / TFR affecting this airport [VIEW]
Communications frequencies: [VIEW]

Runways:

RWY identifierQFULength (ft)Width (ft)SurfaceLDA (ft)
0663°9842148CON
24243°9842148CON

Airport contact information

Address: Tripoli Lebanon

Satellite view of OLKA